Ana Sayfa
METAR-TAF:

METAR-TAF

Havaalanları :

Gökçeada Havalimanı

Gökçeada, Türkiye

Enlem: 40-12-04N, Boylam: 25-52-56E, yükseklik: 22 m

Güncel hava durumu gözlemi

Rapor saat 11:50 UTC de 1 saat ve 9 dakika önce yapıldı.
Rüzgar değişken yönden 8 kt ve 18 kt'a kadar ani rüzgarlar
Sıcaklık 32°C
Nem 36%
Basınç 1010 hPa
Görüş mesafesi 10 km veya daha fazla
2500 ft yükseklikte az bulutlu

METAR: LTFK 201150Z VRB08G18KT 9999 FEW025 32/15 Q1010

Saat: 15:59 (12:59 UTC)

Tahmin

Rapor saat 10:40 UTC de 2 saat ve 19 dakika önce yapıldı.
Ayın 20'si saat 12 UTC'den ayın 20'si saat 21 UTC'ye kadar geçerli Tahmin
Rüzgar kuzeydan 18 kt
Görüş mesafesi 10 km veya daha fazla
1500 m altında bulut yok ve kümülonimbus yok

TAF: LTFK 201040Z 2012/2021 01018KT CAVOK

4.000'den fazla havaalanı için hava durumu gözlemleri ve tahminleri (METAR ve TAF raporları).

Kullanılabilir istasyonlar harita üzerinde sarı ve kırmızı noktalarla gösterilir.

İstasyonun adını görmek için fareyi noktanın üzerinde gezdirin.

Sonrasında hava gözlem ve tahminlerini görmek için tıklayın.

Haritayı değiştirmek için: yaklaştırmak için siyah artı işaretli yeşil düğmeye ve uzaklaştırmak için de eksi işaretli düğmeye hızla tıklayın; bitişik haritalar için yeşil okları kullanın.


METAR-TAF: